sensor_id;sensor_type;location;lat;lon;timestamp;P1;durP1;ratioP1;P2;durP2;ratioP2
60257;SDS011;46115;44.484;11.314;2022-09-29T00:03:42;10.18;;;4.60;;
60257;SDS011;46115;44.484;11.314;2022-09-29T00:07:44;11.82;;;4.78;;
60257;SDS011;46115;44.484;11.314;2022-09-29T00:11:46;9.68;;;4.03;;
60257;SDS011;46115;44.484;11.314;2022-09-29T00:15:57;9.80;;;3.78;;
60257;SDS011;46115;44.484;11.314;2022-09-29T00:20:00;10.23;;;3.75;;
60257;SDS011;46115;44.484;11.314;2022-09-29T00:24:03;10.93;;;3.60;;
60257;SDS011;46115;44.484;11.314;2022-09-29T00:28:05;14.77;;;4.13;;
60257;SDS011;46115;44.484;11.314;2022-09-29T00:36:12;10.95;;;5.00;;
60257;SDS011;46115;44.484;11.314;2022-09-29T00:40:15;10.13;;;4.63;;
60257;SDS011;46115;44.484;11.314;2022-09-29T00:49:12;9.80;;;4.88;;
60257;SDS011;46115;44.484;11.314;2022-09-29T00:53:19;9.70;;;4.15;;
60257;SDS011;46115;44.484;11.314;2022-09-29T00:57:25;8.85;;;4.47;;
60257;SDS011;46115;44.484;11.314;2022-09-29T01:01:30;7.18;;;4.07;;
60257;SDS011;46115;44.484;11.314;2022-09-29T01:05:35;10.45;;;4.90;;
60257;SDS011;46115;44.484;11.314;2022-09-29T01:09:41;17.55;;;6.25;;
60257;SDS011;46115;44.484;11.314;2022-09-29T01:13:44;8.18;;;3.60;;
60257;SDS011;46115;44.484;11.314;2022-09-29T01:17:48;10.85;;;5.60;;
60257;SDS011;46115;44.484;11.314;2022-09-29T01:21:55;9.70;;;5.43;;
60257;SDS011;46115;44.484;11.314;2022-09-29T01:30:53;15.77;;;8.67;;
60257;SDS011;46115;44.484;11.314;2022-09-29T01:35:10;14.02;;;8.02;;
60257;SDS011;46115;44.484;11.314;2022-09-29T01:39:18;11.98;;;6.70;;
60257;SDS011;46115;44.484;11.314;2022-09-29T01:43:30;11.73;;;5.60;;
60257;SDS011;46115;44.484;11.314;2022-09-29T01:47:39;10.98;;;5.38;;
60257;SDS011;46115;44.484;11.314;2022-09-29T01:51:45;10.65;;;4.55;;
60257;SDS011;46115;44.484;11.314;2022-09-29T01:55:51;10.52;;;4.55;;
60257;SDS011;46115;44.484;11.314;2022-09-29T01:59:57;13.90;;;6.88;;
60257;SDS011;46115;44.484;11.314;2022-09-29T02:04:15;16.75;;;7.68;;
60257;SDS011;46115;44.484;11.314;2022-09-29T02:08:21;14.50;;;6.90;;
60257;SDS011;46115;44.484;11.314;2022-09-29T02:12:31;14.27;;;5.75;;
60257;SDS011;46115;44.484;11.314;2022-09-29T02:16:38;6.35;;;3.70;;
60257;SDS011;46115;44.484;11.314;2022-09-29T02:20:46;5.63;;;2.97;;
60257;SDS011;46115;44.484;11.314;2022-09-29T02:24:50;14.23;;;5.30;;
60257;SDS011;46115;44.484;11.314;2022-09-29T02:28:55;12.07;;;6.35;;
60257;SDS011;46115;44.484;11.314;2022-09-29T02:32:58;17.83;;;9.15;;
60257;SDS011;46115;44.484;11.314;2022-09-29T02:37:04;18.30;;;10.98;;
60257;SDS011;46115;44.484;11.314;2022-09-29T02:41:23;24.67;;;15.05;;
60257;SDS011;46115;44.484;11.314;2022-09-29T02:45:37;24.90;;;15.90;;
60257;SDS011;46115;44.484;11.314;2022-09-29T02:49:54;29.00;;;16.65;;
60257;SDS011;46115;44.484;11.314;2022-09-29T02:54:15;23.30;;;14.73;;
60257;SDS011;46115;44.484;11.314;2022-09-29T02:58:31;26.48;;;14.85;;
60257;SDS011;46115;44.484;11.314;2022-09-29T03:02:39;21.25;;;13.43;;
60257;SDS011;46115;44.484;11.314;2022-09-29T03:06:43;20.00;;;11.98;;
60257;SDS011;46115;44.484;11.314;2022-09-29T03:10:46;14.82;;;7.35;;
60257;SDS011;46115;44.484;11.314;2022-09-29T03:14:49;27.40;;;11.77;;
60257;SDS011;46115;44.484;11.314;2022-09-29T03:18:51;19.60;;;10.65;;
60257;SDS011;46115;44.484;11.314;2022-09-29T03:22:55;21.48;;;11.38;;
60257;SDS011;46115;44.484;11.314;2022-09-29T03:26:59;15.68;;;8.57;;
60257;SDS011;46115;44.484;11.314;2022-09-29T03:31:05;14.95;;;6.30;;
60257;SDS011;46115;44.484;11.314;2022-09-29T03:35:09;15.13;;;7.05;;
60257;SDS011;46115;44.484;11.314;2022-09-29T03:39:12;11.23;;;5.53;;
60257;SDS011;46115;44.484;11.314;2022-09-29T03:43:15;10.25;;;4.10;;
60257;SDS011;46115;44.484;11.314;2022-09-29T03:47:18;7.82;;;3.28;;
60257;SDS011;46115;44.484;11.314;2022-09-29T03:51:20;8.98;;;3.40;;
60257;SDS011;46115;44.484;11.314;2022-09-29T03:55:22;7.22;;;2.03;;
60257;SDS011;46115;44.484;11.314;2022-09-29T04:03:28;7.28;;;1.90;;
60257;SDS011;46115;44.484;11.314;2022-09-29T04:07:30;10.25;;;1.88;;
60257;SDS011;46115;44.484;11.314;2022-09-29T04:11:33;5.97;;;1.80;;
60257;SDS011;46115;44.484;11.314;2022-09-29T04:15:37;5.13;;;1.58;;
60257;SDS011;46115;44.484;11.314;2022-09-29T04:19:39;5.05;;;1.63;;
60257;SDS011;46115;44.484;11.314;2022-09-29T04:23:41;8.55;;;2.17;;
60257;SDS011;46115;44.484;11.314;2022-09-29T04:31:47;9.00;;;2.30;;
60257;SDS011;46115;44.484;11.314;2022-09-29T04:35:50;9.85;;;2.95;;
60257;SDS011;46115;44.484;11.314;2022-09-29T04:39:52;9.40;;;3.63;;
60257;SDS011;46115;44.484;11.314;2022-09-29T04:43:54;7.38;;;3.40;;
60257;SDS011;46115;44.484;11.314;2022-09-29T04:48:00;10.82;;;3.33;;
60257;SDS011;46115;44.484;11.314;2022-09-29T04:52:03;9.35;;;2.63;;
60257;SDS011;46115;44.484;11.314;2022-09-29T04:56:06;9.95;;;1.90;;
60257;SDS011;46115;44.484;11.314;2022-09-29T05:00:09;8.55;;;1.90;;
60257;SDS011;46115;44.484;11.314;2022-09-29T05:04:14;6.25;;;1.70;;
60257;SDS011;46115;44.484;11.314;2022-09-29T05:08:16;5.82;;;1.30;;
60257;SDS011;46115;44.484;11.314;2022-09-29T05:12:19;5.35;;;1.30;;
60257;SDS011;46115;44.484;11.314;2022-09-29T05:16:21;5.97;;;1.40;;
60257;SDS011;46115;44.484;11.314;2022-09-29T05:20:25;4.25;;;1.27;;
60257;SDS011;46115;44.484;11.314;2022-09-29T05:24:28;9.43;;;1.65;;
60257;SDS011;46115;44.484;11.314;2022-09-29T05:28:30;4.75;;;1.10;;
60257;SDS011;46115;44.484;11.314;2022-09-29T05:32:32;6.70;;;1.40;;
60257;SDS011;46115;44.484;11.314;2022-09-29T05:36:37;5.15;;;1.30;;
60257;SDS011;46115;44.484;11.314;2022-09-29T05:40:40;7.28;;;1.20;;
60257;SDS011;46115;44.484;11.314;2022-09-29T05:44:42;7.88;;;1.50;;
60257;SDS011;46115;44.484;11.314;2022-09-29T05:48:44;8.88;;;4.20;;
60257;SDS011;46115;44.484;11.314;2022-09-29T05:52:49;16.73;;;8.15;;
60257;SDS011;46115;44.484;11.314;2022-09-29T05:56:52;17.02;;;8.77;;
60257;SDS011;46115;44.484;11.314;2022-09-29T06:00:56;11.63;;;5.50;;
60257;SDS011;46115;44.484;11.314;2022-09-29T06:04:58;11.65;;;6.35;;
60257;SDS011;46115;44.484;11.314;2022-09-29T06:09:02;16.38;;;9.32;;
60257;SDS011;46115;44.484;11.314;2022-09-29T06:13:04;16.92;;;9.40;;
60257;SDS011;46115;44.484;11.314;2022-09-29T06:17:08;19.20;;;12.80;;
60257;SDS011;46115;44.484;11.314;2022-09-29T06:21:12;18.02;;;14.43;;
60257;SDS011;46115;44.484;11.314;2022-09-29T06:25:16;23.98;;;15.57;;
60257;SDS011;46115;44.484;11.314;2022-09-29T06:29:19;17.35;;;12.07;;
60257;SDS011;46115;44.484;11.314;2022-09-29T06:33:21;11.50;;;6.57;;
60257;SDS011;46115;44.484;11.314;2022-09-29T06:37:24;12.25;;;7.97;;
60257;SDS011;46115;44.484;11.314;2022-09-29T06:41:37;9.07;;;5.75;;
60257;SDS011;46115;44.484;11.314;2022-09-29T06:45:42;11.63;;;6.50;;
60257;SDS011;46115;44.484;11.314;2022-09-29T06:49:44;15.35;;;10.93;;
60257;SDS011;46115;44.484;11.314;2022-09-29T06:53:47;19.30;;;10.63;;
60257;SDS011;46115;44.484;11.314;2022-09-29T06:57:50;19.27;;;12.63;;
60257;SDS011;46115;44.484;11.314;2022-09-29T07:01:53;20.77;;;11.65;;
60257;SDS011;46115;44.484;11.314;2022-09-29T07:05:55;16.50;;;9.93;;
60257;SDS011;46115;44.484;11.314;2022-09-29T07:09:58;13.20;;;8.60;;
60257;SDS011;46115;44.484;11.314;2022-09-29T07:14:01;17.38;;;9.85;;
60257;SDS011;46115;44.484;11.314;2022-09-29T07:18:04;15.10;;;10.45;;
60257;SDS011;46115;44.484;11.314;2022-09-29T07:22:06;13.52;;;10.02;;
60257;SDS011;46115;44.484;11.314;2022-09-29T07:26:11;17.73;;;9.38;;
60257;SDS011;46115;44.484;11.314;2022-09-29T07:30:15;13.02;;;7.30;;
60257;SDS011;46115;44.484;11.314;2022-09-29T07:34:18;11.43;;;4.00;;
60257;SDS011;46115;44.484;11.314;2022-09-29T07:38:21;6.75;;;2.08;;
60257;SDS011;46115;44.484;11.314;2022-09-29T07:42:23;11.35;;;5.65;;
60257;SDS011;46115;44.484;11.314;2022-09-29T07:46:33;14.23;;;7.65;;
60257;SDS011;46115;44.484;11.314;2022-09-29T07:50:35;14.38;;;7.90;;
60257;SDS011;46115;44.484;11.314;2022-09-29T07:54:37;15.00;;;7.82;;
60257;SDS011;46115;44.484;11.314;2022-09-29T07:58:40;15.55;;;8.30;;
60257;SDS011;46115;44.484;11.314;2022-09-29T08:02:44;15.23;;;8.80;;
60257;SDS011;46115;44.484;11.314;2022-09-29T08:06:46;14.25;;;8.20;;
60257;SDS011;46115;44.484;11.314;2022-09-29T08:10:50;14.40;;;8.15;;
60257;SDS011;46115;44.484;11.314;2022-09-29T08:14:52;16.85;;;7.97;;
60257;SDS011;46115;44.484;11.314;2022-09-29T08:18:56;13.25;;;8.43;;
60257;SDS011;46115;44.484;11.314;2022-09-29T08:22:59;12.45;;;8.75;;
60257;SDS011;46115;44.484;11.314;2022-09-29T08:27:01;14.68;;;8.45;;
60257;SDS011;46115;44.484;11.314;2022-09-29T08:31:05;16.77;;;8.43;;
60257;SDS011;46115;44.484;11.314;2022-09-29T08:35:10;13.40;;;6.78;;
60257;SDS011;46115;44.484;11.314;2022-09-29T08:39:13;10.80;;;4.10;;
60257;SDS011;46115;44.484;11.314;2022-09-29T08:43:17;8.85;;;1.95;;
60257;SDS011;46115;44.484;11.314;2022-09-29T08:47:24;6.70;;;2.10;;
60257;SDS011;46115;44.484;11.314;2022-09-29T08:51:31;9.48;;;1.75;;
60257;SDS011;46115;44.484;11.314;2022-09-29T08:55:39;6.38;;;1.65;;
60257;SDS011;46115;44.484;11.314;2022-09-29T08:59:47;4.55;;;1.30;;
60257;SDS011;46115;44.484;11.314;2022-09-29T09:04:01;8.10;;;1.27;;
60257;SDS011;46115;44.484;11.314;2022-09-29T09:08:35;8.98;;;1.25;;
60257;SDS011;46115;44.484;11.314;2022-09-29T09:12:55;5.45;;;1.23;;
60257;SDS011;46115;44.484;11.314;2022-09-29T09:17:09;6.32;;;1.42;;
60257;SDS011;46115;44.484;11.314;2022-09-29T09:21:22;7.30;;;1.27;;
60257;SDS011;46115;44.484;11.314;2022-09-29T09:25:31;7.50;;;1.40;;
60257;SDS011;46115;44.484;11.314;2022-09-29T09:29:36;5.75;;;1.20;;
60257;SDS011;46115;44.484;11.314;2022-09-29T09:33:44;5.90;;;1.60;;
60257;SDS011;46115;44.484;11.314;2022-09-29T09:37:50;4.55;;;1.10;;
60257;SDS011;46115;44.484;11.314;2022-09-29T09:41:56;4.38;;;1.02;;
60257;SDS011;46115;44.484;11.314;2022-09-29T09:46:01;3.97;;;1.10;;
60257;SDS011;46115;44.484;11.314;2022-09-29T09:50:13;5.60;;;1.40;;
60257;SDS011;46115;44.484;11.314;2022-09-29T09:54:20;6.15;;;1.30;;
60257;SDS011;46115;44.484;11.314;2022-09-29T09:58:39;5.63;;;1.15;;
60257;SDS011;46115;44.484;11.314;2022-09-29T10:02:56;3.60;;;0.90;;
60257;SDS011;46115;44.484;11.314;2022-09-29T10:07:02;4.18;;;1.00;;
60257;SDS011;46115;44.484;11.314;2022-09-29T10:11:11;5.03;;;1.10;;
60257;SDS011;46115;44.484;11.314;2022-09-29T10:15:24;3.78;;;1.00;;
60257;SDS011;46115;44.484;11.314;2022-09-29T10:23:56;4.93;;;1.35;;
60257;SDS011;46115;44.484;11.314;2022-09-29T10:28:00;4.85;;;1.00;;
60257;SDS011;46115;44.484;11.314;2022-09-29T10:32:05;3.88;;;0.90;;
60257;SDS011;46115;44.484;11.314;2022-09-29T10:36:10;4.90;;;1.00;;
60257;SDS011;46115;44.484;11.314;2022-09-29T10:40:14;5.03;;;1.05;;
60257;SDS011;46115;44.484;11.314;2022-09-29T10:44:20;3.97;;;1.00;;
60257;SDS011;46115;44.484;11.314;2022-09-29T10:48:25;2.95;;;0.70;;
60257;SDS011;46115;44.484;11.314;2022-09-29T10:52:28;4.53;;;1.00;;
60257;SDS011;46115;44.484;11.314;2022-09-29T10:56:30;1.83;;;0.63;;
60257;SDS011;46115;44.484;11.314;2022-09-29T11:00:34;6.15;;;0.90;;
60257;SDS011;46115;44.484;11.314;2022-09-29T11:04:39;4.60;;;0.80;;
60257;SDS011;46115;44.484;11.314;2022-09-29T11:08:56;5.03;;;0.88;;
60257;SDS011;46115;44.484;11.314;2022-09-29T11:13:07;2.17;;;0.60;;
60257;SDS011;46115;44.484;11.314;2022-09-29T11:17:36;2.47;;;0.50;;
60257;SDS011;46115;44.484;11.314;2022-09-29T11:26:13;3.25;;;0.50;;
60257;SDS011;46115;44.484;11.314;2022-09-29T11:30:26;2.05;;;0.70;;
60257;SDS011;46115;44.484;11.314;2022-09-29T11:34:42;5.20;;;0.68;;
60257;SDS011;46115;44.484;11.314;2022-09-29T11:39:17;2.70;;;0.60;;
60257;SDS011;46115;44.484;11.314;2022-09-29T11:43:36;3.92;;;0.65;;
60257;SDS011;46115;44.484;11.314;2022-09-29T11:56:57;2.33;;;0.60;;
60257;SDS011;46115;44.484;11.314;2022-09-29T12:01:10;4.28;;;0.65;;
60257;SDS011;46115;44.484;11.314;2022-09-29T12:05:23;2.42;;;0.70;;
60257;SDS011;46115;44.484;11.314;2022-09-29T12:09:36;3.22;;;0.98;;
60257;SDS011;46115;44.484;11.314;2022-09-29T12:13:53;2.78;;;0.70;;
60257;SDS011;46115;44.484;11.314;2022-09-29T12:18:03;7.10;;;1.55;;
60257;SDS011;46115;44.484;11.314;2022-09-29T12:22:13;3.67;;;0.77;;
60257;SDS011;46115;44.484;11.314;2022-09-29T12:26:19;2.13;;;0.65;;
60257;SDS011;46115;44.484;11.314;2022-09-29T12:30:27;3.85;;;0.82;;
60257;SDS011;46115;44.484;11.314;2022-09-29T12:34:33;4.25;;;1.00;;
60257;SDS011;46115;44.484;11.314;2022-09-29T12:38:41;4.10;;;0.80;;
60257;SDS011;46115;44.484;11.314;2022-09-29T12:42:50;3.17;;;0.85;;
60257;SDS011;46115;44.484;11.314;2022-09-29T12:47:05;3.10;;;0.70;;
60257;SDS011;46115;44.484;11.314;2022-09-29T12:51:15;4.70;;;0.90;;
60257;SDS011;46115;44.484;11.314;2022-09-29T12:55:25;2.55;;;0.63;;
60257;SDS011;46115;44.484;11.314;2022-09-29T12:59:34;3.50;;;0.50;;
60257;SDS011;46115;44.484;11.314;2022-09-29T13:17:40;2.88;;;0.68;;
60257;SDS011;46115;44.484;11.314;2022-09-29T13:21:59;2.55;;;0.60;;
60257;SDS011;46115;44.484;11.314;2022-09-29T13:26:27;4.03;;;0.60;;
60257;SDS011;46115;44.484;11.314;2022-09-29T13:30:41;3.58;;;0.60;;
60257;SDS011;46115;44.484;11.314;2022-09-29T13:34:47;2.85;;;0.50;;
60257;SDS011;46115;44.484;11.314;2022-09-29T13:38:57;4.57;;;0.95;;
60257;SDS011;46115;44.484;11.314;2022-09-29T13:43:02;2.28;;;0.60;;
60257;SDS011;46115;44.484;11.314;2022-09-29T13:55:56;2.25;;;0.52;;
60257;SDS011;46115;44.484;11.314;2022-09-29T14:04:42;1.70;;;0.52;;
60257;SDS011;46115;44.484;11.314;2022-09-29T14:08:47;2.47;;;0.60;;
60257;SDS011;46115;44.484;11.314;2022-09-29T14:12:56;2.55;;;0.70;;
60257;SDS011;46115;44.484;11.314;2022-09-29T14:17:03;3.53;;;0.70;;
60257;SDS011;46115;44.484;11.314;2022-09-29T14:21:12;2.40;;;0.60;;
60257;SDS011;46115;44.484;11.314;2022-09-29T14:25:32;5.60;;;0.50;;
60257;SDS011;46115;44.484;11.314;2022-09-29T14:29:52;2.30;;;0.70;;
60257;SDS011;46115;44.484;11.314;2022-09-29T14:34:01;2.88;;;0.73;;
60257;SDS011;46115;44.484;11.314;2022-09-29T14:38:05;8.82;;;0.88;;
60257;SDS011;46115;44.484;11.314;2022-09-29T14:42:14;3.25;;;0.75;;
60257;SDS011;46115;44.484;11.314;2022-09-29T14:51:09;2.53;;;0.60;;
60257;SDS011;46115;44.484;11.314;2022-09-29T14:55:39;2.55;;;0.68;;
60257;SDS011;46115;44.484;11.314;2022-09-29T14:59:55;4.57;;;0.90;;
60257;SDS011;46115;44.484;11.314;2022-09-29T15:04:06;3.20;;;0.77;;
60257;SDS011;46115;44.484;11.314;2022-09-29T15:08:21;3.45;;;0.90;;
60257;SDS011;46115;44.484;11.314;2022-09-29T15:12:29;5.10;;;0.80;;
60257;SDS011;46115;44.484;11.314;2022-09-29T15:16:36;6.32;;;0.90;;
60257;SDS011;46115;44.484;11.314;2022-09-29T15:20:52;4.07;;;0.77;;
60257;SDS011;46115;44.484;11.314;2022-09-29T15:25:05;3.70;;;0.68;;
60257;SDS011;46115;44.484;11.314;2022-09-29T15:29:29;4.22;;;0.70;;
60257;SDS011;46115;44.484;11.314;2022-09-29T15:33:34;3.05;;;0.70;;
60257;SDS011;46115;44.484;11.314;2022-09-29T15:37:52;3.70;;;0.63;;
60257;SDS011;46115;44.484;11.314;2022-09-29T15:42:01;2.03;;;0.60;;
60257;SDS011;46115;44.484;11.314;2022-09-29T15:46:15;4.32;;;0.73;;
60257;SDS011;46115;44.484;11.314;2022-09-29T15:50:21;3.90;;;0.98;;
60257;SDS011;46115;44.484;11.314;2022-09-29T15:54:26;4.93;;;0.70;;
60257;SDS011;46115;44.484;11.314;2022-09-29T15:58:36;4.20;;;0.88;;
60257;SDS011;46115;44.484;11.314;2022-09-29T16:02:46;4.28;;;0.90;;
60257;SDS011;46115;44.484;11.314;2022-09-29T16:06:51;3.72;;;1.00;;
60257;SDS011;46115;44.484;11.314;2022-09-29T16:10:54;3.35;;;0.82;;
60257;SDS011;46115;44.484;11.314;2022-09-29T16:15:00;7.22;;;0.73;;
60257;SDS011;46115;44.484;11.314;2022-09-29T16:19:06;5.50;;;0.90;;
60257;SDS011;46115;44.484;11.314;2022-09-29T16:23:16;4.15;;;0.80;;
60257;SDS011;46115;44.484;11.314;2022-09-29T16:31:44;3.70;;;0.80;;
60257;SDS011;46115;44.484;11.314;2022-09-29T16:35:54;4.45;;;0.70;;
60257;SDS011;46115;44.484;11.314;2022-09-29T16:40:01;4.88;;;0.77;;
60257;SDS011;46115;44.484;11.314;2022-09-29T16:44:04;2.63;;;0.70;;
60257;SDS011;46115;44.484;11.314;2022-09-29T16:48:14;4.78;;;0.68;;
60257;SDS011;46115;44.484;11.314;2022-09-29T16:52:17;3.38;;;0.90;;
60257;SDS011;46115;44.484;11.314;2022-09-29T16:56:26;4.38;;;0.80;;
60257;SDS011;46115;44.484;11.314;2022-09-29T17:00:33;4.13;;;0.70;;
60257;SDS011;46115;44.484;11.314;2022-09-29T17:04:39;3.58;;;0.90;;
60257;SDS011;46115;44.484;11.314;2022-09-29T17:08:41;4.10;;;0.90;;
60257;SDS011;46115;44.484;11.314;2022-09-29T17:12:43;5.03;;;1.00;;
60257;SDS011;46115;44.484;11.314;2022-09-29T17:16:46;4.65;;;1.00;;
60257;SDS011;46115;44.484;11.314;2022-09-29T17:20:50;4.80;;;0.88;;
60257;SDS011;46115;44.484;11.314;2022-09-29T17:24:53;3.60;;;0.80;;
60257;SDS011;46115;44.484;11.314;2022-09-29T17:28:55;5.05;;;0.95;;
60257;SDS011;46115;44.484;11.314;2022-09-29T17:32:57;4.15;;;0.90;;
60257;SDS011;46115;44.484;11.314;2022-09-29T22:06:10;4.80;;;1.13;;
60257;SDS011;46115;44.484;11.314;2022-09-29T22:10:14;6.40;;;0.98;;
60257;SDS011;46115;44.484;11.314;2022-09-29T22:14:16;7.15;;;1.30;;
60257;SDS011;46115;44.484;11.314;2022-09-29T22:18:19;3.72;;;1.00;;
60257;SDS011;46115;44.484;11.314;2022-09-29T22:22:23;4.15;;;1.20;;
60257;SDS011;46115;44.484;11.314;2022-09-29T22:26:25;3.83;;;1.05;;
60257;SDS011;46115;44.484;11.314;2022-09-29T22:30:28;6.18;;;1.27;;
60257;SDS011;46115;44.484;11.314;2022-09-29T22:38:33;5.25;;;0.90;;
60257;SDS011;46115;44.484;11.314;2022-09-29T22:42:37;4.43;;;1.00;;
60257;SDS011;46115;44.484;11.314;2022-09-29T22:46:39;4.97;;;0.85;;
60257;SDS011;46115;44.484;11.314;2022-09-29T22:50:42;4.82;;;1.10;;
60257;SDS011;46115;44.484;11.314;2022-09-29T22:54:46;6.40;;;1.10;;
60257;SDS011;46115;44.484;11.314;2022-09-29T22:58:48;6.20;;;0.90;;
60257;SDS011;46115;44.484;11.314;2022-09-29T23:02:51;4.53;;;0.90;;
60257;SDS011;46115;44.484;11.314;2022-09-29T23:06:53;5.43;;;1.10;;
60257;SDS011;46115;44.484;11.314;2022-09-29T23:10:56;4.60;;;0.98;;
60257;SDS011;46115;44.484;11.314;2022-09-29T23:14:59;5.38;;;0.90;;
60257;SDS011;46115;44.484;11.314;2022-09-29T23:19:01;5.78;;;1.00;;
60257;SDS011;46115;44.484;11.314;2022-09-29T23:23:03;3.08;;;0.90;;
60257;SDS011;46115;44.484;11.314;2022-09-29T23:31:09;4.45;;;0.80;;
60257;SDS011;46115;44.484;11.314;2022-09-29T23:35:12;2.42;;;0.77;;
60257;SDS011;46115;44.484;11.314;2022-09-29T23:39:14;4.68;;;0.82;;
60257;SDS011;46115;44.484;11.314;2022-09-29T23:43:18;6.10;;;0.82;;
60257;SDS011;46115;44.484;11.314;2022-09-29T23:47:20;2.67;;;0.77;;
60257;SDS011;46115;44.484;11.314;2022-09-29T23:55:25;1.52;;;0.52;;
60257;SDS011;46115;44.484;11.314;2022-09-29T23:59:28;5.38;;;0.85;;
